Louisville, KY

12:45 AM EDT on March 30, 2015 (GMT -0400)
Bowman | | Change Station
CLOSE
Current Station
Airport
Location: Louisville Bowman,
Elevation: 545 ft
Nearby Weather Stations

Elev 545 ft 38.23 °N, 85.66 °W | Updated 52 minutes ago

Overcast
Overcast
53 °F
Feels Like 53 °F
N
8
Wind Variable Wind from WSW

Today
High -- | Low -- °F
--% Chance of Precip.
Yesterday
High -- | Low -- °F
Precip. -- in
7:31 AM 8:04 PM
Waxing Gibbous, 77% visible
Pressure 30.03 in
Visibility 10.0 miles
Clouds Overcast 4800 ft
Dew Point 40 °F
Humidity 61%
Rainfall 0.01 in
Snow Depth Not available.
UV 0 out of 12
Pollen 8.50 out of 12
Air Quality Not available.
Flu Activity Not available.
METAR KLOU 300353Z AUTO 25007KT 10SM -RA OVC048 12/04 A3003 RMK AO2 SLP168 P0001 T01170044

More Conditions Fewer Conditions

Pressure 30.03 in
Visibility 10.0 miles
Clouds Overcast 4800 ft
Dew Point 40 °F
Humidity 61%
Rainfall 0.01 in
Snow Depth Not available.
UV 0 out of 12
Pollen 8.50 out of 12
Air Quality Not available.
Flu Activity Not available.
METAR KLOU 300353Z AUTO 25007KT 10SM -RA OVC048 12/04 A3003 RMK AO2 SLP168 P0001 T01170044

More Conditions Fewer Conditions

10-Day Weather Forecast

Almanac

Astronomy

Mar. 30, 2015 Rise Set
Actual Time
Civil Twilight
Nautical Twilight
Astronomical Twilight
Moon
Length of Visible Light
Length of Day
Tomorrow will be .
, % of the Moon is Illuminated

Today's Extremes

State Highs State Lows

Community

WunderPhotos

Upload Photos

1,809,436 photos uploaded!

WunderBlogs® & News

Nearby

Air Quality

  Air Quality AQ Index Pollutant
Not available.

Snow Depth

Station Depth Elevation

Earthquake Activity

City Distance Mag. Time & Date
Minimum magnitude displayed is 2.5.

Coastal Water Temperatures

Place Temperature

Stations

Nearby Weather Stations

Station Location Temp. Windchill Dew Point Humidity Wind Precip. Elev Updated Type